Time;durP1;ratioP1;P1;durP2;ratioP2;P2;SDS_P1;SDS_P2;PMS_P1;PMS_P2;Temp;Humidity;BMP_temperature;BMP_pressure;BME280_temperature;BME280_humidity;BME280_pressure;Samples;Min_cycle;Max_cycle;Signal;HPM_P1;HPM_P2
2021/03/21 00:02:17;;;;;;;41.88;39.30;;;;;;;;;;5048550;28;20494;-83
2021/03/21 00:04:45;;;;;;;41.55;39.47;;;;;;;;;;5047936;28;20045;-83
2021/03/21 00:07:12;;;;;;;39.55;37.60;;;;;;;;;;5025717;28;20048;-83
2021/03/21 00:09:39;;;;;;;41.55;39.33;;;;;;;;;;5017212;28;20041;-83
2021/03/21 00:12:07;;;;;;;40.55;38.58;;;;;;;;;;5049680;28;20029;-83
2021/03/21 00:14:34;;;;;;;39.40;37.72;;;;;;;;;;5049624;28;20040;-83
2021/03/21 00:17:02;;;;;;;39.60;37.88;;;;;;;;;;5028704;28;20041;-83
2021/03/21 00:19:29;;;;;;;38.22;36.45;;;;;;;;;;5046133;28;20051;-83
2021/03/21 00:21:57;;;;;;;38.78;36.97;;;;;;;;;;5034686;28;20045;-83
2021/03/21 00:24:24;;;;;;;38.53;36.72;;;;;;;;;;5020697;28;20677;-83
2021/03/21 00:27:06;;;;;;;39.20;37.50;;;;;;;;;;5038912;28;20045;-83
2021/03/21 00:29:34;;;;;;;39.45;37.72;;;;;;;;;;5044576;28;20033;-83
2021/03/21 00:32:01;;;;;;;38.88;37.30;;;;;;;;;;5047794;28;20040;-83
2021/03/21 00:34:28;;;;;;;37.67;35.95;;;;;;;;;;5021744;28;20100;-83
2021/03/21 00:36:55;;;;;;;39.28;37.20;;;;;;;;;;5019075;28;20033;-83
2021/03/21 00:39:24;;;;;;;37.47;35.78;;;;;;;;;;5020656;28;20129;-83
2021/03/21 00:41:51;;;;;;;38.53;36.25;;;;;;;;;;5041554;28;20049;-82
2021/03/21 00:44:18;;;;;;;38.35;36.63;;;;;;;;;;5036624;28;20048;-82
2021/03/21 00:46:45;;;;;;;40.53;38.65;;;;;;;;;;5031602;28;20041;-83
2021/03/21 00:49:12;;;;;;;39.78;37.88;;;;;;;;;;5011499;28;20046;-83
2021/03/21 00:51:39;;;;;;;40.67;38.97;;;;;;;;;;5048367;28;20390;-82
2021/03/21 00:54:07;;;;;;;40.55;38.60;;;;;;;;;;5028030;28;20509;-82
2021/03/21 00:56:36;;;;;;;40.83;39.05;;;;;;;;;;5046929;28;20037;-82
2021/03/21 00:59:03;;;;;;;39.28;37.38;;;;;;;;;;5045136;28;20055;-82
2021/03/21 01:01:31;;;;;;;39.30;37.47;;;;;;;;;;5022788;28;20418;-83
2021/03/21 01:03:58;;;;;;;38.70;37.17;;;;;;;;;;5031409;28;20048;-83
2021/03/21 01:06:26;;;;;;;38.28;36.38;;;;;;;;;;5041403;28;20045;-83
2021/03/21 01:08:54;;;;;;;40.05;38.08;;;;;;;;;;5029929;28;20497;-83
2021/03/21 01:11:24;;;;;;;38.75;37.25;;;;;;;;;;5046210;28;20094;-83
2021/03/21 01:13:51;;;;;;;39.53;37.83;;;;;;;;;;5029255;28;20038;-83
2021/03/21 01:16:23;;;;;;;37.40;35.72;;;;;;;;;;5044417;28;20052;-83
2021/03/21 01:18:50;;;;;;;39.53;37.70;;;;;;;;;;5040114;28;20055;-83
2021/03/21 01:21:19;;;;;;;41.67;39.55;;;;;;;;;;5039918;28;20068;-83
2021/03/21 01:23:46;;;;;;;39.63;37.40;;;;;;;;;;5044567;28;20041;-83
2021/03/21 01:26:14;;;;;;;39.63;37.83;;;;;;;;;;5044281;28;20053;-83
2021/03/21 01:28:42;;;;;;;38.40;36.40;;;;;;;;;;5048026;28;20466;-83
2021/03/21 01:31:10;;;;;;;39.45;37.38;;;;;;;;;;5042195;28;20048;-83
2021/03/21 01:33:38;;;;;;;40.67;39.10;;;;;;;;;;5032534;28;20032;-82
2021/03/21 01:36:11;;;;;;;39.35;37.33;;;;;;;;;;5039102;28;20071;-83
2021/03/21 01:38:38;;;;;;;38.10;36.60;;;;;;;;;;5040985;28;20042;-83
2021/03/21 01:41:07;;;;;;;40.08;38.38;;;;;;;;;;5030155;28;20056;-83
2021/03/21 01:43:36;;;;;;;36.33;34.47;;;;;;;;;;5025304;28;21130;-83
2021/03/21 01:46:04;;;;;;;38.92;37.15;;;;;;;;;;5040553;28;20444;-83
2021/03/21 01:48:37;;;;;;;37.95;36.35;;;;;;;;;;5032294;28;20721;-82
2021/03/21 01:51:24;;;;;;;37.47;35.83;;;;;;;;;;5024539;28;20041;-83
2021/03/21 01:53:56;;;;;;;40.55;38.40;;;;;;;;;;5052630;28;20037;-83
2021/03/21 01:56:24;;;;;;;40.97;39.28;;;;;;;;;;5033766;28;20044;-83
2021/03/21 01:58:55;;;;;;;40.83;39.20;;;;;;;;;;5030626;28;20048;-82
2021/03/21 02:01:24;;;;;;;38.63;36.95;;;;;;;;;;5049968;28;20393;-82
2021/03/21 02:03:52;;;;;;;37.85;36.15;;;;;;;;;;5046855;28;20041;-82
2021/03/21 02:06:35;;;;;;;40.05;38.33;;;;;;;;;;5018097;28;20063;-83
2021/03/21 02:09:06;;;;;;;40.55;38.78;;;;;;;;;;5045563;28;20124;-83
2021/03/21 02:11:59;;;;;;;38.38;36.70;;;;;;;;;;5016284;28;20099;-83
2021/03/21 02:14:45;;;;;;;37.28;35.65;;;;;;;;;;4988552;28;20383;-83
2021/03/21 02:17:12;;;;;;;38.35;36.75;;;;;;;;;;4988776;28;20062;-82
2021/03/21 02:19:43;;;;;;;39.03;37.25;;;;;;;;;;4990056;28;20522;-83
2021/03/21 02:22:20;;;;;;;41.22;39.65;;;;;;;;;;4990675;28;20105;-83
2021/03/21 02:24:53;;;;;;;38.72;37.22;;;;;;;;;;4987703;28;20137;-83
2021/03/21 02:27:26;;;;;;;36.72;35.28;;;;;;;;;;4989099;28;20455;-83
2021/03/21 02:29:56;;;;;;;37.20;35.40;;;;;;;;;;4989426;28;20062;-83
2021/03/21 02:32:26;;;;;;;37.92;36.33;;;;;;;;;;4989295;28;20519;-83
2021/03/21 02:35:03;;;;;;;38.75;36.88;;;;;;;;;;4980303;28;20039;-83
2021/03/21 02:37:42;;;;;;;38.08;36.38;;;;;;;;;;4985261;28;20046;-83
2021/03/21 02:40:09;;;;;;;39.53;37.95;;;;;;;;;;4973772;28;20058;-83
2021/03/21 02:42:38;;;;;;;37.38;35.45;;;;;;;;;;4990294;28;20043;-83
2021/03/21 02:45:06;;;;;;;38.45;36.63;;;;;;;;;;4988397;28;20576;-83
2021/03/21 02:47:33;;;;;;;37.88;36.25;;;;;;;;;;4990638;28;20519;-83
2021/03/21 02:50:07;;;;;;;39.13;37.60;;;;;;;;;;4988494;28;20034;-83
2021/03/21 02:52:44;;;;;;;37.78;36.38;;;;;;;;;;5052484;28;20386;-83
2021/03/21 02:55:24;;;;;;;36.95;35.35;;;;;;;;;;5032514;28;20073;-83
2021/03/21 02:57:54;;;;;;;39.22;37.30;;;;;;;;;;5028058;28;20137;-83
2021/03/21 03:00:30;;;;;;;38.17;36.58;;;;;;;;;;5042052;28;20049;-83
2021/03/21 03:02:59;;;;;;;36.92;35.60;;;;;;;;;;5026937;28;20129;-83
2021/03/21 03:05:29;;;;;;;36.70;35.15;;;;;;;;;;5031994;28;20046;-83
2021/03/21 03:08:19;;;;;;;35.60;34.38;;;;;;;;;;5040379;28;20087;-83
2021/03/21 03:10:49;;;;;;;35.35;34.25;;;;;;;;;;5032632;28;20052;-83
2021/03/21 03:13:41;;;;;;;38.53;36.70;;;;;;;;;;5036249;28;20061;-83
2021/03/21 03:16:26;;;;;;;35.03;33.75;;;;;;;;;;5046714;28;20124;-83
2021/03/21 03:19:05;;;;;;;38.67;36.75;;;;;;;;;;5044550;28;20096;-83
2021/03/21 03:21:43;;;;;;;37.30;35.90;;;;;;;;;;5020210;28;20035;-82
2021/03/21 03:24:31;;;;;;;41.92;40.00;;;;;;;;;;5046902;28;20045;-83
2021/03/21 03:27:19;;;;;;;37.30;35.55;;;;;;;;;;4999047;28;20049;-82
2021/03/21 03:29:50;;;;;;;37.95;36.17;;;;;;;;;;5031672;28;20043;-83
2021/03/21 03:32:17;;;;;;;36.85;35.00;;;;;;;;;;5030376;28;20041;-83
2021/03/21 03:34:47;;;;;;;39.10;37.53;;;;;;;;;;5030999;28;20398;-83
2021/03/21 03:37:14;;;;;;;37.13;35.67;;;;;;;;;;5025462;28;20044;-83
2021/03/21 03:39:42;;;;;;;36.28;34.88;;;;;;;;;;5045972;28;20410;-83
2021/03/21 03:42:15;;;;;;;38.00;36.67;;;;;;;;;;5059166;28;20040;-83
2021/03/21 03:45:00;;;;;;;39.40;37.70;;;;;;;;;;5042730;28;20053;-83
2021/03/21 03:47:33;;;;;;;39.80;38.03;;;;;;;;;;5036983;28;20542;-83
2021/03/21 03:50:03;;;;;;;36.10;34.50;;;;;;;;;;5030792;28;20128;-83
2021/03/21 03:52:50;;;;;;;39.65;37.80;;;;;;;;;;5041118;28;20034;-83
2021/03/21 03:55:24;;;;;;;37.13;35.38;;;;;;;;;;5048375;28;20045;-83
2021/03/21 03:57:51;;;;;;;;;;;;;;;;;;5033785;28;20033;-82
2021/03/21 04:00:24;;;;;;;38.25;36.45;;;;;;;;;;5039531;28;19936;-83
2021/03/21 04:02:54;;;;;;;36.17;34.88;;;;;;;;;;5051074;28;20173;-83
2021/03/21 04:05:30;;;;;;;37.78;36.58;;;;;;;;;;5042149;28;20048;-83
2021/03/21 04:08:06;;;;;;;39.33;37.70;;;;;;;;;;5046496;28;20119;-83
2021/03/21 04:10:51;;;;;;;38.13;36.15;;;;;;;;;;5030598;28;20547;-83
2021/03/21 04:13:40;;;;;;;40.17;38.17;;;;;;;;;;5043939;28;20455;-82
2021/03/21 04:16:08;;;;;;;36.92;35.47;;;;;;;;;;5036796;28;20037;-82
2021/03/21 04:18:41;;;;;;;36.50;34.65;;;;;;;;;;5047074;28;20063;-83
2021/03/21 04:21:13;;;;;;;35.35;34.13;;;;;;;;;;5025551;28;20041;-83
2021/03/21 04:23:43;;;;;;;40.55;38.78;;;;;;;;;;5032420;28;20094;-83
2021/03/21 04:26:14;;;;;;;36.17;34.67;;;;;;;;;;5010818;28;20050;-83
2021/03/21 04:28:42;;;;;;;35.28;33.97;;;;;;;;;;5029179;28;20640;-83
2021/03/21 04:31:11;;;;;;;39.15;37.58;;;;;;;;;;5022686;28;20045;-83
2021/03/21 04:33:41;;;;;;;37.85;36.10;;;;;;;;;;5042837;28;20080;-83
2021/03/21 04:36:13;;;;;;;35.75;34.20;;;;;;;;;;5046434;28;20048;-83
2021/03/21 04:38:43;;;;;;;34.20;32.58;;;;;;;;;;5049854;28;20044;-83
2021/03/21 04:41:11;;;;;;;36.60;35.10;;;;;;;;;;5031432;28;20041;-83
2021/03/21 04:43:43;;;;;;;36.35;34.78;;;;;;;;;;5030171;28;20045;-83
2021/03/21 04:46:18;;;;;;;38.67;36.67;;;;;;;;;;5024484;28;20057;-83
2021/03/21 04:48:46;;;;;;;37.33;35.75;;;;;;;;;;5038342;28;20029;-82
2021/03/21 04:51:17;;;;;;;35.63;34.38;;;;;;;;;;5026362;28;20029;-83
2021/03/21 04:53:56;;;;;;;39.00;37.10;;;;;;;;;;5022017;28;20092;-83
2021/03/21 04:56:27;;;;;;;39.85;37.88;;;;;;;;;;5048211;28;20037;-83
2021/03/21 04:58:57;;;;;;;33.38;32.13;;;;;;;;;;5044579;28;20097;-83
2021/03/21 05:01:26;;;;;;;34.72;33.17;;;;;;;;;;5031498;28;20433;-82
2021/03/21 05:03:56;;;;;;;37.47;35.58;;;;;;;;;;5009302;28;20137;-83
2021/03/21 05:06:44;;;;;;;36.65;35.22;;;;;;;;;;5034768;28;20088;-83
2021/03/21 05:09:22;;;;;;;36.95;35.40;;;;;;;;;;5015512;28;20059;-82
2021/03/21 05:12:14;;;;;;;39.65;37.50;;;;;;;;;;5027975;28;20049;-83
2021/03/21 05:14:50;;;;;;;36.38;34.92;;;;;;;;;;5018534;28;20111;-83
2021/03/21 05:17:31;;;;;;;37.10;35.72;;;;;;;;;;5048767;28;20049;-83
2021/03/21 05:20:18;;;;;;;36.22;34.72;;;;;;;;;;5025371;28;20040;-82
2021/03/21 05:23:00;;;;;;;38.53;36.88;;;;;;;;;;5033459;28;20029;-82
2021/03/21 05:25:35;;;;;;;35.58;34.08;;;;;;;;;;5058666;28;20080;-82
2021/03/21 05:28:15;;;;;;;36.30;34.72;;;;;;;;;;5029991;28;20595;-82
2021/03/21 05:30:59;;;;;;;34.55;32.63;;;;;;;;;;5045621;28;20033;-82
2021/03/21 05:33:27;;;;;;;37.30;35.78;;;;;;;;;;5042499;28;20148;-82
2021/03/21 05:35:59;;;;;;;38.67;37.22;;;;;;;;;;5042035;28;20033;-82
2021/03/21 05:38:32;;;;;;;37.72;36.25;;;;;;;;;;5044659;28;20041;-82
2021/03/21 05:41:02;;;;;;;37.85;36.33;;;;;;;;;;5027557;28;20060;-82
2021/03/21 05:43:32;;;;;;;37.92;36.53;;;;;;;;;;5042551;28;20038;-83
2021/03/21 05:46:18;;;;;;;36.08;34.88;;;;;;;;;;5017954;28;20056;-83
2021/03/21 05:48:54;;;;;;;39.65;37.83;;;;;;;;;;5045888;28;20554;-82
2021/03/21 05:51:42;;;;;;;36.95;35.70;;;;;;;;;;5045421;28;20048;-82
2021/03/21 05:54:12;;;;;;;39.33;37.58;;;;;;;;;;5048620;28;20039;-82
2021/03/21 05:56:42;;;;;;;37.72;36.13;;;;;;;;;;5045609;28;20120;-83
2021/03/21 05:59:12;;;;;;;36.58;34.88;;;;;;;;;;5034547;28;20120;-83
2021/03/21 06:01:58;;;;;;;35.40;33.92;;;;;;;;;;5046829;28;20045;-83
2021/03/21 06:04:34;;;;;;;34.90;33.38;;;;;;;;;;5009898;28;20082;-83
2021/03/21 06:07:01;;;;;;;37.17;35.97;;;;;;;;;;5044442;28;20383;-83
2021/03/21 06:09:37;;;;;;;37.92;36.38;;;;;;;;;;5047817;28;20079;-83
2021/03/21 06:12:22;;;;;;;35.63;34.33;;;;;;;;;;5051867;28;20095;-83
2021/03/21 06:14:52;;;;;;;36.25;35.05;;;;;;;;;;5030883;28;20064;-83
2021/03/21 06:17:19;;;;;;;33.75;32.28;;;;;;;;;;5020324;28;20081;-83
2021/03/21 06:19:46;;;;;;;36.20;34.85;;;;;;;;;;5051348;28;20099;-83
2021/03/21 06:22:35;;;;;;;35.58;34.22;;;;;;;;;;5029068;28;20052;-83
2021/03/21 06:25:17;;;;;;;36.70;34.85;;;;;;;;;;5045851;28;20047;-83
2021/03/21 06:27:50;;;;;;;35.85;34.50;;;;;;;;;;5043416;28;20598;-83
2021/03/21 06:30:24;;;;;;;37.08;35.58;;;;;;;;;;5038528;28;20137;-83
2021/03/21 06:32:54;;;;;;;34.20;32.47;;;;;;;;;;5034672;28;20052;-83
2021/03/21 06:35:24;;;;;;;36.55;35.15;;;;;;;;;;5046738;28;20509;-83
2021/03/21 06:38:00;;;;;;;34.58;33.40;;;;;;;;;;5032290;28;20524;-83
2021/03/21 06:40:51;;;;;;;35.53;34.25;;;;;;;;;;5033893;28;20037;-83
2021/03/21 06:43:33;;;;;;;34.60;33.50;;;;;;;;;;5044373;28;20036;-83
2021/03/21 06:46:05;;;;;;;37.55;36.15;;;;;;;;;;5031640;28;20124;-83
2021/03/21 06:48:47;;;;;;;36.15;34.88;;;;;;;;;;5027451;28;20041;-83
2021/03/21 06:51:14;;;;;;;35.65;34.13;;;;;;;;;;5012952;28;20052;-83
2021/03/21 06:53:46;;;;;;;34.13;32.63;;;;;;;;;;5030686;28;20558;-82
2021/03/21 06:56:16;;;;;;;35.78;34.35;;;;;;;;;;5009831;28;20041;-82
2021/03/21 06:58:55;;;;;;;35.30;33.97;;;;;;;;;;5040529;28;20041;-82
2021/03/21 07:01:35;;;;;;;40.47;38.72;;;;;;;;;;5035986;28;20051;-82
2021/03/21 07:04:12;;;;;;;41.33;39.58;;;;;;;;;;5030067;28;20519;-82
2021/03/21 07:06:42;;;;;;;33.55;32.45;;;;;;;;;;5050282;28;20048;-82
2021/03/21 07:09:09;;;;;;;34.78;33.28;;;;;;;;;;5050558;28;20044;-82
2021/03/21 07:11:39;;;;;;;35.00;33.70;;;;;;;;;;5059908;28;20018;-81
2021/03/21 07:14:12;;;;;;;35.60;34.15;;;;;;;;;;5040580;28;20429;-81
2021/03/21 07:16:57;;;;;;;35.80;34.40;;;;;;;;;;5046253;28;20515;-82
2021/03/21 07:19:30;;;;;;;34.80;33.65;;;;;;;;;;5051374;28;20053;-82
2021/03/21 07:22:04;;;;;;;36.83;35.50;;;;;;;;;;5053681;28;20052;-82
2021/03/21 07:24:33;;;;;;;35.75;34.45;;;;;;;;;;5045467;28;20044;-81
2021/03/21 07:27:00;;;;;;;35.10;33.47;;;;;;;;;;5047291;28;20124;-81
2021/03/21 07:29:44;;;;;;;33.22;31.55;;;;;;;;;;5049949;28;20067;-82
2021/03/21 07:32:36;;;;;;;35.75;34.22;;;;;;;;;;5048447;28;20113;-82
2021/03/21 07:35:15;;;;;;;36.72;35.47;;;;;;;;;;5029707;28;20116;-82
2021/03/21 07:37:45;;;;;;;34.88;33.67;;;;;;;;;;4985997;28;20073;-82
2021/03/21 07:40:15;;;;;;;35.17;33.97;;;;;;;;;;5032064;28;20103;-82
2021/03/21 07:43:09;;;;;;;35.55;33.95;;;;;;;;;;5012022;28;20556;-82
2021/03/21 07:45:53;;;;;;;35.05;33.83;;;;;;;;;;5025920;28;20252;-82
2021/03/21 07:48:23;;;;;;;34.90;33.60;;;;;;;;;;5020978;28;20041;-82
2021/03/21 07:50:50;;;;;;;33.38;32.22;;;;;;;;;;5016037;28;20061;-82
2021/03/21 07:53:34;;;;;;;34.63;33.42;;;;;;;;;;5001032;28;20053;-82
2021/03/21 07:56:01;;;;;;;34.60;33.50;;;;;;;;;;5037788;28;20077;-82
2021/03/21 07:58:45;;;;;;;34.70;33.38;;;;;;;;;;5006237;28;20049;-82
2021/03/21 08:01:12;;;;;;;;;;;;;;;;;;5028785;28;20406;-82
2021/03/21 08:03:44;;;;;;;33.22;32.13;;;;;;;;;;5049982;28;19921;-82
2021/03/21 08:06:14;;;;;;;35.78;33.95;;;;;;;;;;5025672;28;20509;-82
2021/03/21 08:08:47;;;;;;;34.78;33.42;;;;;;;;;;5018150;28;20032;-82
2021/03/21 08:11:18;;;;;;;35.35;34.28;;;;;;;;;;5017547;28;20398;-82
2021/03/21 08:13:52;;;;;;;35.93;34.33;;;;;;;;;;5031379;28;20040;-82
2021/03/21 08:16:34;;;;;;;34.05;32.75;;;;;;;;;;5051379;28;20036;-82
2021/03/21 08:19:01;;;;;;;35.05;33.95;;;;;;;;;;5045913;28;20136;-82
2021/03/21 08:21:30;;;;;;;38.10;36.30;;;;;;;;;;5024230;28;20099;-82
2021/03/21 08:23:59;;;;;;;38.10;36.60;;;;;;;;;;5033988;28;20045;-82
2021/03/21 08:26:29;;;;;;;36.40;35.10;;;;;;;;;;5028161;28;20056;-82
2021/03/21 08:29:04;;;;;;;35.72;34.63;;;;;;;;;;5050480;28;20512;-82
2021/03/21 08:31:42;;;;;;;36.28;34.88;;;;;;;;;;5032702;28;20448;-82
2021/03/21 08:34:28;;;;;;;35.33;34.03;;;;;;;;;;5032714;28;20140;-82
2021/03/21 08:36:55;;;;;;;36.60;34.97;;;;;;;;;;5051666;28;20046;-82
2021/03/21 08:39:37;;;;;;;38.17;36.72;;;;;;;;;;5031506;28;20467;-82
2021/03/21 08:42:05;;;;;;;35.35;33.95;;;;;;;;;;5042793;28;20646;-82
2021/03/21 08:44:39;;;;;;;57.63;51.63;;;;;;;;;;5029528;28;20506;-82
2021/03/21 08:47:15;;;;;;;48.05;44.70;;;;;;;;;;5028241;28;20053;-82
2021/03/21 08:49:45;;;;;;;39.13;37.25;;;;;;;;;;5033305;28;20048;-82
2021/03/21 08:52:26;;;;;;;37.30;35.70;;;;;;;;;;5043203;28;20444;-82
2021/03/21 08:54:54;;;;;;;33.13;32.22;;;;;;;;;;5049775;28;20032;-82
2021/03/21 08:57:32;;;;;;;35.60;33.92;;;;;;;;;;5053930;28;20042;-82
2021/03/21 09:00:18;;;;;;;35.40;34.28;;;;;;;;;;5065940;28;20063;-82
2021/03/21 09:02:45;;;;;;;34.47;33.28;;;;;;;;;;5040938;28;20052;-82
2021/03/21 09:05:14;;;;;;;33.75;32.63;;;;;;;;;;5049232;28;20047;-82
2021/03/21 09:07:44;;;;;;;34.25;32.92;;;;;;;;;;5047764;28;20047;-82
2021/03/21 09:10:11;;;;;;;35.85;34.47;;;;;;;;;;5033388;28;20049;-82
2021/03/21 09:12:42;;;;;;;37.17;35.45;;;;;;;;;;5049476;28;20025;-82
2021/03/21 09:15:22;;;;;;;35.25;33.85;;;;;;;;;;5041259;28;20056;-82
2021/03/21 09:18:08;;;;;;;33.30;32.03;;;;;;;;;;5054400;28;20060;-82
2021/03/21 09:20:36;;;;;;;35.22;34.00;;;;;;;;;;5052121;28;20092;-82
2021/03/21 09:23:22;;;;;;;34.65;33.13;;;;;;;;;;5019554;28;20045;-82
2021/03/21 09:25:54;;;;;;;35.05;33.60;;;;;;;;;;5037141;28;20041;-82
2021/03/21 09:28:23;;;;;;;35.92;34.63;;;;;;;;;;5036611;28;20047;-82
2021/03/21 09:30:50;;;;;;;34.33;33.13;;;;;;;;;;5037071;28;20067;-81
2021/03/21 09:33:25;;;;;;;34.70;33.50;;;;;;;;;;5035173;28;20037;-81
2021/03/21 09:35:59;;;;;;;34.25;32.97;;;;;;;;;;5021743;28;20048;-82
2021/03/21 09:38:28;;;;;;;36.65;35.28;;;;;;;;;;5032769;28;20041;-82
2021/03/21 09:40:57;;;;;;;36.67;35.42;;;;;;;;;;5036965;28;20041;-82
2021/03/21 09:43:30;;;;;;;32.15;31.08;;;;;;;;;;5039708;28;20037;-82
2021/03/21 09:46:16;;;;;;;35.75;34.22;;;;;;;;;;5035940;28;20048;-82
2021/03/21 09:48:59;;;;;;;35.63;34.17;;;;;;;;;;5028879;28;20041;-82
2021/03/21 09:51:39;;;;;;;31.08;29.95;;;;;;;;;;5050476;28;20037;-82
2021/03/21 09:54:06;;;;;;;36.10;34.80;;;;;;;;;;5029600;28;20045;-82
2021/03/21 09:56:52;;;;;;;35.65;34.25;;;;;;;;;;5054874;28;20064;-82
2021/03/21 09:59:33;;;;;;;36.20;34.72;;;;;;;;;;5019788;28;20090;-82
2021/03/21 10:02:02;;;;;;;34.85;33.45;;;;;;;;;;5032543;28;20501;-82
2021/03/21 10:04:41;;;;;;;34.38;33.08;;;;;;;;;;5034405;28;20469;-82
2021/03/21 10:07:21;;;;;;;36.50;34.95;;;;;;;;;;5027026;28;20375;-82
2021/03/21 10:09:49;;;;;;;32.45;31.25;;;;;;;;;;5032231;28;20033;-82
2021/03/21 10:12:19;;;;;;;35.42;34.03;;;;;;;;;;5030677;28;20494;-82
2021/03/21 10:14:59;;;;;;;33.20;32.05;;;;;;;;;;5032537;28;20512;-82
2021/03/21 10:17:25;;;;;;;35.90;34.45;;;;;;;;;;5034961;28;20049;-82
2021/03/21 10:19:55;;;;;;;31.95;31.05;;;;;;;;;;5030054;28;20478;-82
2021/03/21 10:22:22;;;;;;;22.23;21.27;;;;;;;;;;5024895;28;20064;-82
2021/03/21 10:24:51;;;;;;;9.43;9.07;;;;;;;;;;5033128;28;20058;-82
2021/03/21 10:27:21;;;;;;;25.60;24.48;;;;;;;;;;5018154;28;20103;-82
2021/03/21 10:30:02;;;;;;;10.63;10.15;;;;;;;;;;5018208;28;20102;-82
2021/03/21 10:32:30;;;;;;;9.57;9.48;;;;;;;;;;5048948;28;20064;-82
2021/03/21 10:34:58;;;;;;;9.40;9.02;;;;;;;;;;5035702;28;20050;-82
2021/03/21 10:37:44;;;;;;;8.63;8.43;;;;;;;;;;5024810;28;20037;-82
2021/03/21 10:40:24;;;;;;;9.68;9.27;;;;;;;;;;5030786;28;20046;-82
2021/03/21 10:42:54;;;;;;;10.68;10.27;;;;;;;;;;5046385;28;20095;-82
2021/03/21 10:45:22;;;;;;;10.13;9.63;;;;;;;;;;5050641;28;20048;-82
2021/03/21 10:47:50;;;;;;;13.52;13.18;;;;;;;;;;5018069;28;20041;-82
2021/03/21 10:50:29;;;;;;;26.58;25.73;;;;;;;;;;5045338;28;20063;-82
2021/03/21 10:53:15;;;;;;;29.83;28.83;;;;;;;;;;5051824;28;20548;-82
2021/03/21 10:55:43;;;;;;;29.33;27.63;;;;;;;;;;5031091;28;20128;-82
2021/03/21 10:58:29;;;;;;;28.00;26.92;;;;;;;;;;5051178;28;20709;-82
2021/03/21 11:01:20;;;;;;;10.85;10.45;;;;;;;;;;5028578;28;20045;-82
2021/03/21 11:04:00;;;;;;;9.35;9.07;;;;;;;;;;5028040;28;20538;-81
2021/03/21 11:06:28;;;;;;;21.10;20.50;;;;;;;;;;5051693;28;20041;-82
2021/03/21 11:09:06;;;;;;;20.08;19.38;;;;;;;;;;5044014;28;20029;-82
2021/03/21 11:11:38;;;;;;;26.75;25.95;;;;;;;;;;5051848;28;20398;-82
2021/03/21 11:14:20;;;;;;;9.65;9.45;;;;;;;;;;5034907;28;20063;-82
2021/03/21 11:16:54;;;;;;;8.93;8.73;;;;;;;;;;5047262;28;20044;-81
2021/03/21 11:19:36;;;;;;;7.68;7.53;;;;;;;;;;5035675;28;20061;-81
2021/03/21 11:22:42;;;;;;;8.80;8.27;;;;;;;;;;5029031;28;20494;-81
2021/03/21 11:25:14;;;;;;;8.43;7.88;;;;;;;;;;4981920;28;20407;-82
2021/03/21 11:27:48;;;;;;;8.38;8.10;;;;;;;;;;4995549;28;20048;-82
2021/03/21 11:30:17;;;;;;;8.25;8.05;;;;;;;;;;5005128;28;20042;-82
2021/03/21 11:32:44;;;;;;;8.77;8.57;;;;;;;;;;4990178;28;20050;-82
2021/03/21 11:35:22;;;;;;;8.07;7.78;;;;;;;;;;5010297;28;20148;-82
2021/03/21 11:37:49;;;;;;;7.57;7.45;;;;;;;;;;5004332;28;20096;-82
2021/03/21 11:40:22;;;;;;;8.63;8.38;;;;;;;;;;5067700;28;20413;-43
2021/03/21 11:43:04;;;;;;;11.23;10.82;;;;;;;;;;5047948;28;20037;-44
2021/03/21 11:45:36;;;;;;;27.27;25.60;;;;;;;;;;5046793;28;20037;-56
2021/03/21 11:48:03;;;;;;;22.83;20.75;;;;;;;;;;5048001;28;20086;-47
2021/03/21 11:50:32;;;;;;;17.85;17.33;;;;;;;;;;5047392;28;20044;-45
2021/03/21 11:53:00;;;;;;;11.30;11.00;;;;;;;;;;5047552;28;20096;-48
2021/03/21 11:55:30;;;;;;;10.25;9.93;;;;;;;;;;5045766;28;20041;-46
2021/03/21 11:58:06;;;;;;;10.77;10.57;;;;;;;;;;5046364;28;20033;-46
2021/03/21 12:00:36;;;;;;;8.48;8.20;;;;;;;;;;5047610;28;20045;-47
2021/03/21 12:03:07;;;;;;;9.25;8.95;;;;;;;;;;5046392;28;20044;-44
2021/03/21 12:05:36;;;;;;;10.70;10.23;;;;;;;;;;5046690;28;20036;-46
2021/03/21 12:08:07;;;;;;;13.00;12.40;;;;;;;;;;5035074;28;20047;-47
2021/03/21 12:10:36;;;;;;;8.57;8.35;;;;;;;;;;5047429;28;20402;-48
2021/03/21 12:13:21;;;;;;;12.82;11.65;;;;;;;;;;5047656;28;20037;-46
2021/03/21 12:15:51;;;;;;;16.92;15.13;;;;;;;;;;5040765;28;20048;-50
2021/03/21 12:18:22;;;;;;;17.05;15.38;;;;;;;;;;5048906;28;20040;-49
2021/03/21 12:20:58;;;;;;;8.52;8.02;;;;;;;;;;5044120;28;20041;-48
2021/03/21 12:23:27;;;;;;;20.83;20.13;;;;;;;;;;5038016;28;20038;-48
2021/03/21 12:26:23;;;;;;;21.48;20.58;;;;;;;;;;5044706;28;20048;-44
2021/03/21 12:29:11;;;;;;;17.55;16.92;;;;;;;;;;5048390;28;20146;-45
2021/03/21 12:31:39;;;;;;;11.77;11.35;;;;;;;;;;5035291;28;20057;-45
2021/03/21 12:34:25;;;;;;;10.90;10.30;;;;;;;;;;5040796;28;20482;-44
2021/03/21 12:37:03;;;;;;;8.02;7.50;;;;;;;;;;5044439;28;20409;-44
2021/03/21 12:39:32;;;;;;;23.27;22.35;;;;;;;;;;5044207;28;20042;-45
2021/03/21 12:42:00;;;;;;;26.30;25.60;;;;;;;;;;5044963;28;20041;-46
2021/03/21 12:44:32;;;;;;;26.95;25.95;;;;;;;;;;5043860;28;20087;-44
2021/03/21 12:47:01;;;;;;;25.98;25.23;;;;;;;;;;5046193;28;20037;-46
2021/03/21 12:49:42;;;;;;;28.35;27.45;;;;;;;;;;5042554;28;20139;-44
2021/03/21 12:52:13;;;;;;;25.23;24.50;;;;;;;;;;5016922;28;20073;-45
2021/03/21 12:54:47;;;;;;;27.15;26.05;;;;;;;;;;5033384;28;20212;-45
2021/03/21 12:57:15;;;;;;;30.73;29.70;;;;;;;;;;5031192;28;20045;-45
2021/03/21 12:59:50;;;;;;;24.10;23.30;;;;;;;;;;5029964;28;20378;-47
2021/03/21 13:02:37;;;;;;;25.58;24.77;;;;;;;;;;5029638;28;20042;-45
2021/03/21 13:05:07;;;;;;;26.52;25.45;;;;;;;;;;5024341;28;20460;-47
2021/03/21 13:07:34;;;;;;;27.38;26.48;;;;;;;;;;5032701;28;20041;-44
2021/03/21 13:10:01;;;;;;;19.30;18.42;;;;;;;;;;5029391;28;20041;-45
2021/03/21 13:12:28;;;;;;;8.85;8.55;;;;;;;;;;5028884;28;20052;-47
2021/03/21 13:14:55;;;;;;;7.57;7.47;;;;;;;;;;5032364;28;20053;-45
2021/03/21 13:17:22;;;;;;;10.38;9.88;;;;;;;;;;5027511;28;20056;-46
2021/03/21 13:19:49;;;;;;;8.80;8.60;;;;;;;;;;5031214;28;20065;-44
2021/03/21 13:22:17;;;;;;;6.72;6.63;;;;;;;;;;5029669;28;20464;-45
2021/03/21 13:24:44;;;;;;;8.30;8.13;;;;;;;;;;5031672;28;20049;-43
2021/03/21 13:27:11;;;;;;;8.55;8.40;;;;;;;;;;5021955;28;20516;-46
2021/03/21 13:29:38;;;;;;;8.85;8.65;;;;;;;;;;5025887;28;20041;-45
2021/03/21 13:32:05;;;;;;;19.25;18.75;;;;;;;;;;5030737;28;20041;-47
2021/03/21 13:34:32;;;;;;;18.92;18.48;;;;;;;;;;5030528;28;20058;-49
2021/03/21 13:37:20;;;;;;;25.98;24.98;;;;;;;;;;5028009;28;20489;-47
2021/03/21 13:39:48;;;;;;;23.92;23.33;;;;;;;;;;5027993;28;20693;-46
2021/03/21 13:42:15;;;;;;;13.55;13.13;;;;;;;;;;5024335;28;20045;-47
2021/03/21 13:44:44;;;;;;;9.15;8.95;;;;;;;;;;5030779;28;20057;-47
2021/03/21 13:47:11;;;;;;;8.98;8.60;;;;;;;;;;5032138;28;20123;-48
2021/03/21 13:49:39;;;;;;;13.35;12.95;;;;;;;;;;5029534;28;20513;-47
2021/03/21 13:52:08;;;;;;;26.23;25.42;;;;;;;;;;5030022;28;20045;-47
2021/03/21 13:54:35;;;;;;;26.05;25.42;;;;;;;;;;5030501;28;20037;-46
2021/03/21 13:57:03;;;;;;;26.60;25.83;;;;;;;;;;5030185;28;20083;-46
2021/03/21 13:59:30;;;;;;;28.38;27.15;;;;;;;;;;5030429;28;20133;-49
2021/03/21 14:01:57;;;;;;;23.80;22.85;;;;;;;;;;5026383;28;20452;-47
2021/03/21 14:04:25;;;;;;;12.80;12.40;;;;;;;;;;5030119;28;20467;-48
2021/03/21 14:06:52;;;;;;;21.00;20.33;;;;;;;;;;5029719;28;20041;-49
2021/03/21 14:09:19;;;;;;;9.30;9.18;;;;;;;;;;5030881;28;20029;-50
2021/03/21 14:11:46;;;;;;;8.82;8.52;;;;;;;;;;5030476;28;20033;-43
2021/03/21 14:14:15;;;;;;;15.82;15.45;;;;;;;;;;5026535;28;20042;-48
2021/03/21 14:16:42;;;;;;;20.05;19.45;;;;;;;;;;5028218;28;20033;-47
2021/03/21 14:19:09;;;;;;;27.92;26.83;;;;;;;;;;5030838;28;20553;-49
2021/03/21 14:21:37;;;;;;;23.63;23.02;;;;;;;;;;5021534;28;20037;-46
2021/03/21 14:24:04;;;;;;;24.80;23.35;;;;;;;;;;5031747;28;20382;-47
2021/03/21 14:26:31;;;;;;;21.55;20.85;;;;;;;;;;5029132;28;20042;-46
2021/03/21 14:28:58;;;;;;;22.70;21.98;;;;;;;;;;5020943;28;20160;-54
2021/03/21 14:31:25;;;;;;;24.58;23.88;;;;;;;;;;5031205;28;20045;-55
2021/03/21 14:33:59;;;;;;;26.42;25.38;;;;;;;;;;5029463;28;20049;-55
2021/03/21 14:36:26;;;;;;;24.35;23.58;;;;;;;;;;5030839;28;20045;-55
2021/03/21 14:38:52;;;;;;;20.63;19.88;;;;;;;;;;5029245;28;20061;-51
2021/03/21 14:41:20;;;;;;;9.48;9.27;;;;;;;;;;5022767;28;20033;-54
2021/03/21 14:43:47;;;;;;;16.88;15.30;;;;;;;;;;5030946;28;20040;-55
2021/03/21 14:46:14;;;;;;;9.57;9.23;;;;;;;;;;5027482;28;20040;-53
2021/03/21 14:48:41;;;;;;;11.32;10.40;;;;;;;;;;5031257;28;20420;-55
2021/03/21 14:51:08;;;;;;;10.32;9.63;;;;;;;;;;5028141;28;20386;-55
2021/03/21 14:53:35;;;;;;;8.25;7.95;;;;;;;;;;5027385;28;20049;-54
2021/03/21 14:56:02;;;;;;;9.88;9.32;;;;;;;;;;5030681;28;20045;-55